Time;durP1;ratioP1;P1;durP2;ratioP2;P2;SDS_P1;SDS_P2;PMS_P1;PMS_P2;Temp;Humidity;BMP_temperature;BMP_pressure;BME280_temperature;BME280_humidity;BME280_pressure;Samples;Min_cycle;Max_cycle;Signal;HPM_P1;HPM_P2
2021/06/03 00:02:39;;;;;;;4.00;2.35;;;17.00;93.70;;;;;;5033213;28;20037;-68
2021/06/03 00:05:46;;;;;;;5.30;2.53;;;16.90;93.90;;;;;;5033428;28;20052;-68
2021/06/03 00:08:50;;;;;;;3.25;2.33;;;16.90;93.90;;;;;;5032619;28;20052;-68
2021/06/03 00:11:54;;;;;;;4.22;2.60;;;16.90;93.90;;;;;;5032742;28;20060;-68
2021/06/03 00:14:58;;;;;;;4.22;2.83;;;16.80;94.00;;;;;;5033433;28;20053;-68
2021/06/03 00:18:04;;;;;;;3.13;2.80;;;16.80;94.20;;;;;;5032489;28;20045;-68
2021/06/03 00:21:10;;;;;;;4.03;2.53;;;16.70;94.50;;;;;;5032970;28;20056;-67
2021/06/03 00:24:15;;;;;;;4.07;2.85;;;16.60;94.50;;;;;;5032141;28;20044;-68
2021/06/03 00:27:20;;;;;;;3.45;2.65;;;16.40;94.70;;;;;;5032441;28;20203;-68
2021/06/03 00:30:26;;;;;;;5.03;2.63;;;16.40;95.20;;;;;;5032903;28;20053;-68
2021/06/03 00:33:30;;;;;;;4.55;2.47;;;16.40;95.10;;;;;;5018616;28;20052;-68
2021/06/03 00:36:43;;;;;;;5.78;2.90;;;16.40;95.20;;;;;;5022096;28;20048;-68
2021/06/03 00:39:47;;;;;;;5.97;2.80;;;16.40;95.30;;;;;;5032317;28;20044;-68
2021/06/03 00:42:51;;;;;;;4.03;2.30;;;16.30;95.50;;;;;;5015346;28;20044;-68
2021/06/03 00:45:57;;;;;;;8.90;3.10;;;16.20;95.90;;;;;;5032155;28;20056;-68
2021/06/03 00:49:01;;;;;;;5.53;2.90;;;16.20;96.70;;;;;;5031748;28;20507;-68
2021/06/03 00:52:09;;;;;;;7.00;2.90;;;16.20;96.60;;;;;;5011579;28;20053;-68
2021/06/03 00:55:13;;;;;;;4.15;2.78;;;16.20;97.00;;;;;;5019573;28;20045;-68
2021/06/03 00:58:18;;;;;;;8.98;3.20;;;16.10;97.40;;;;;;5019932;28;20048;-67
2021/06/03 01:01:22;;;;;;;3.17;2.53;;;16.00;97.70;;;;;;5031930;28;20550;-68
2021/06/03 01:04:27;;;;;;;4.25;2.88;;;15.90;98.20;;;;;;5031036;28;20048;-68
2021/06/03 01:07:32;;;;;;;3.80;2.70;;;15.80;98.40;;;;;;5019522;28;20096;-67
2021/06/03 01:11:14;;;;;;;6.13;3.50;;;15.70;99.10;;;;;;4999816;28;20052;-67
2021/06/03 01:14:20;;;;;;;4.72;2.92;;;15.60;99.90;;;;;;5012251;28;20041;-67
2021/06/03 01:17:26;;;;;;;4.63;3.30;;;15.50;99.90;;;;;;5012151;28;20045;-67
2021/06/03 01:20:33;;;;;;;4.40;2.95;;;15.40;99.90;;;;;;4999197;28;20057;-67
2021/06/03 01:24:06;;;;;;;7.05;3.70;;;15.30;99.90;;;;;;5019463;28;20036;-67
2021/06/03 01:27:14;;;;;;;5.80;3.63;;;15.20;99.90;;;;;;5030492;28;20045;-67
2021/06/03 01:30:24;;;;;;;4.10;3.70;;;15.10;99.90;;;;;;5019142;28;20036;-67
2021/06/03 01:33:31;;;;;;;6.30;3.67;;;15.10;99.90;;;;;;5030730;28;20113;-67
2021/06/03 01:36:36;;;;;;;7.53;3.67;;;15.10;99.90;;;;;;5031236;28;20495;-67
2021/06/03 01:39:43;;;;;;;4.88;3.50;;;15.10;99.90;;;;;;5019469;28;20060;-67
2021/06/03 01:42:49;;;;;;;7.90;3.60;;;15.10;99.90;;;;;;5030438;28;20052;-67
2021/06/03 01:45:54;;;;;;;9.40;4.45;;;15.00;99.90;;;;;;5031308;28;20040;-67
2021/06/03 01:49:03;;;;;;;6.07;4.10;;;15.00;99.90;;;;;;5017644;28;20053;-67
2021/06/03 01:52:08;;;;;;;6.00;3.67;;;15.00;99.90;;;;;;5018083;28;20052;-68
2021/06/03 01:55:15;;;;;;;10.77;4.40;;;15.00;99.90;;;;;;5018883;28;20040;-67
2021/06/03 01:58:21;;;;;;;7.03;4.60;;;15.00;99.90;;;;;;5018259;28;20400;-67
2021/06/03 02:01:26;;;;;;;9.43;5.07;;;15.00;99.90;;;;;;5030402;28;20044;-68
2021/06/03 02:04:30;;;;;;;8.82;4.95;;;15.00;99.90;;;;;;5018361;28;20084;-67
2021/06/03 02:07:35;;;;;;;10.00;5.10;;;14.90;99.90;;;;;;5010304;28;20040;-67
2021/06/03 02:10:40;;;;;;;7.63;4.65;;;14.80;99.90;;;;;;5013252;28;20473;-67
2021/06/03 02:13:57;;;;;;;11.27;5.72;;;14.80;99.90;;;;;;5009461;28;20604;-67
2021/06/03 02:17:41;;;;;;;8.20;5.22;;;14.70;99.90;;;;;;5019197;28;20040;-67
2021/06/03 02:20:47;;;;;;;8.65;5.20;;;14.60;99.90;;;;;;5008203;28;20045;-67
2021/06/03 02:23:58;;;;;;;10.98;5.13;;;14.50;99.90;;;;;;4998495;28;20037;-67
2021/06/03 02:27:05;;;;;;;11.07;5.40;;;14.40;99.90;;;;;;5018275;28;20391;-67
2021/06/03 02:30:10;;;;;;;7.82;5.40;;;14.40;99.90;;;;;;5017352;28;20044;-67
2021/06/03 02:33:15;;;;;;;8.00;5.57;;;14.30;99.90;;;;;;5029986;28;20045;-67
2021/06/03 02:36:19;;;;;;;8.95;5.95;;;14.30;99.90;;;;;;4997072;28;20053;-67
2021/06/03 02:39:24;;;;;;;8.80;5.47;;;14.40;99.90;;;;;;4997505;28;20044;-67
2021/06/03 02:42:28;;;;;;;6.95;5.32;;;14.30;99.90;;;;;;4998291;28;20036;-67
2021/06/03 02:45:34;;;;;;;8.90;5.80;;;14.30;99.90;;;;;;5010074;28;20041;-68
2021/06/03 02:48:41;;;;;;;12.70;5.63;;;14.30;99.90;;;;;;4998224;28;20409;-67
2021/06/03 02:51:45;;;;;;;9.73;5.65;;;14.30;99.90;;;;;;5009773;28;20036;-67
2021/06/03 02:54:50;;;;;;;9.10;5.30;;;14.30;99.90;;;;;;5028848;28;20392;-67
2021/06/03 02:57:55;;;;;;;10.02;5.80;;;14.30;99.90;;;;;;5017943;28;20056;-67
2021/06/03 03:01:02;;;;;;;9.43;5.32;;;14.30;99.90;;;;;;5028114;28;20068;-68
2021/06/03 03:04:07;;;;;;;11.73;5.15;;;14.30;99.90;;;;;;5009963;28;20045;-68
2021/06/03 03:07:12;;;;;;;6.50;4.70;;;14.30;99.90;;;;;;4998124;28;20049;-68
2021/06/03 03:10:26;;;;;;;6.35;4.72;;;14.30;99.90;;;;;;5009950;28;20503;-67
2021/06/03 03:13:31;;;;;;;7.60;4.35;;;14.20;99.90;;;;;;5011057;28;20052;-68
2021/06/03 03:16:35;;;;;;;13.40;5.20;;;14.10;99.90;;;;;;4997910;28;20057;-68
2021/06/03 03:19:42;;;;;;;7.57;4.65;;;14.10;99.90;;;;;;5009257;28;20049;-68
2021/06/03 03:22:47;;;;;;;5.30;4.05;;;14.20;99.90;;;;;;5009138;28;20512;-68
2021/06/03 03:25:52;;;;;;;5.38;4.32;;;14.20;99.90;;;;;;5022092;28;20044;-68
2021/06/03 03:28:56;;;;;;;6.85;4.57;;;14.20;99.90;;;;;;5029576;28;20056;-67
2021/06/03 03:32:01;;;;;;;7.35;4.90;;;14.20;99.90;;;;;;5029061;28;20056;-68
2021/06/03 03:35:07;;;;;;;6.38;4.40;;;14.20;99.90;;;;;;5028786;28;20072;-68
2021/06/03 03:38:20;;;;;;;6.47;4.85;;;14.20;99.90;;;;;;5017131;28;20048;-68
2021/06/03 03:41:27;;;;;;;8.85;5.22;;;14.20;99.90;;;;;;5017369;28;20049;-68
2021/06/03 03:44:31;;;;;;;6.57;4.70;;;14.20;99.90;;;;;;5017239;28;20503;-68
2021/06/03 03:47:37;;;;;;;8.27;4.57;;;14.10;99.90;;;;;;5017461;28;20044;-68
2021/06/03 03:50:43;;;;;;;7.30;4.95;;;14.10;99.90;;;;;;5015803;28;20044;-68
2021/06/03 03:53:51;;;;;;;9.05;5.65;;;14.10;99.90;;;;;;5028330;28;20044;-68
2021/06/03 03:56:59;;;;;;;5.88;4.72;;;14.00;99.90;;;;;;5028822;28;20036;-68
2021/06/03 04:00:10;;;;;;;5.88;4.57;;;14.10;99.90;;;;;;5027643;28;20048;-68
2021/06/03 04:03:21;;;;;;;8.23;5.13;;;14.00;99.90;;;;;;5029126;28;20131;-67
2021/06/03 04:06:31;;;;;;;14.15;5.13;;;14.00;99.90;;;;;;5028033;28;20041;-68
2021/06/03 04:09:38;;;;;;;6.75;4.57;;;14.10;99.90;;;;;;5027801;28;20400;-68
2021/06/03 04:12:44;;;;;;;7.40;5.28;;;14.00;99.90;;;;;;5018104;28;20045;-67
2021/06/03 04:15:49;;;;;;;9.27;4.88;;;14.00;99.90;;;;;;5031989;28;20381;-67
2021/06/03 04:18:56;;;;;;;7.68;5.60;;;14.00;99.90;;;;;;5030629;28;20048;-67
2021/06/03 04:22:03;;;;;;;7.20;4.53;;;14.00;99.90;;;;;;5030987;28;20040;-68
2021/06/03 04:25:11;;;;;;;8.10;4.78;;;14.10;99.90;;;;;;5018035;28;20040;-67
2021/06/03 04:28:15;;;;;;;10.48;4.57;;;14.20;99.90;;;;;;5032526;28;20614;-68
2021/06/03 04:31:19;;;;;;;5.07;3.80;;;15.60;99.90;;;;;;5029377;28;20068;-68
2021/06/03 04:34:23;;;;;;;5.13;3.83;;;17.60;99.90;;;;;;5019713;28;20535;-68
2021/06/03 04:37:27;;;;;;;6.45;3.65;;;19.50;99.90;;;;;;5013137;28;20048;-68
2021/06/03 04:40:32;;;;;;;8.13;3.58;;;21.00;99.90;;;;;;5012526;28;20480;-68
2021/06/03 04:43:37;;;;;;;7.00;3.85;;;21.80;99.10;;;;;;5023691;28;20048;-68
2021/06/03 04:46:41;;;;;;;8.68;3.45;;;22.60;96.80;;;;;;5032365;28;20048;-68
2021/06/03 04:49:45;;;;;;;8.07;5.00;;;21.60;97.40;;;;;;5026848;28;20049;-68
2021/06/03 04:52:50;;;;;;;4.72;3.53;;;22.40;96.80;;;;;;5012121;28;20049;-68
2021/06/03 04:55:57;;;;;;;5.57;3.10;;;23.50;95.30;;;;;;5017609;28;20044;-68
2021/06/03 04:59:02;;;;;;;5.85;3.47;;;23.90;94.90;;;;;;5031179;28;20045;-68
2021/06/03 05:02:07;;;;;;;6.50;3.03;;;24.40;94.10;;;;;;5012750;28;20053;-68
2021/06/03 05:05:14;;;;;;;11.45;3.85;;;24.90;93.30;;;;;;5032232;28;20060;-68
2021/06/03 05:08:18;;;;;;;8.88;3.53;;;23.80;93.20;;;;;;5044928;28;20235;-68
2021/06/03 05:11:23;;;;;;;5.50;3.45;;;24.20;93.50;;;;;;5017854;28;20057;-68
2021/06/03 05:14:28;;;;;;;4.35;2.90;;;25.20;92.90;;;;;;5011826;28;20520;-68
2021/06/03 05:17:34;;;;;;;4.45;3.00;;;25.80;92.10;;;;;;5011394;28;20044;-68
2021/06/03 05:20:39;;;;;;;6.20;3.15;;;26.40;91.40;;;;;;5010820;28;20045;-68
2021/06/03 05:23:45;;;;;;;4.10;3.00;;;26.80;90.90;;;;;;5011006;28;20503;-68
2021/06/03 05:26:49;;;;;;;4.93;3.10;;;26.60;90.30;;;;;;5012147;28;20045;-68
2021/06/03 05:29:53;;;;;;;4.07;2.95;;;26.90;90.00;;;;;;5016554;28;20053;-68
2021/06/03 05:32:58;;;;;;;3.75;2.88;;;27.40;89.20;;;;;;5032486;28;20041;-68
2021/06/03 05:36:04;;;;;;;6.43;2.95;;;27.30;88.50;;;;;;5029910;28;20045;-68
2021/06/03 05:39:09;;;;;;;7.72;2.90;;;27.10;88.70;;;;;;5030724;28;20045;-68
2021/06/03 05:42:13;;;;;;;4.75;3.20;;;27.40;87.80;;;;;;5030559;28;20036;-68
2021/06/03 05:45:18;;;;;;;4.10;2.75;;;27.70;86.80;;;;;;5031034;28;20108;-69
2021/06/03 05:48:22;;;;;;;5.90;2.50;;;27.60;85.40;;;;;;5021617;28;20041;-66
2021/06/03 05:51:28;;;;;;;6.85;2.50;;;27.70;85.50;;;;;;5015642;28;20045;-68
2021/06/03 05:54:33;;;;;;;5.80;2.50;;;27.50;86.10;;;;;;5011503;28;20037;-68
2021/06/03 05:57:37;;;;;;;4.40;2.67;;;27.50;85.30;;;;;;5011311;28;20068;-69
2021/06/03 06:00:41;;;;;;;4.25;2.40;;;27.90;83.80;;;;;;5005453;28;20244;-68
2021/06/03 06:03:57;;;;;;;14.13;3.28;;;28.40;83.20;;;;;;5019385;28;20040;-69
2021/06/03 06:07:02;;;;;;;8.38;3.13;;;27.50;84.60;;;;;;5017303;28;20045;-69
2021/06/03 06:10:08;;;;;;;3.92;2.67;;;25.20;88.40;;;;;;5016437;28;20048;-68
2021/06/03 06:13:12;;;;;;;4.70;2.88;;;22.80;92.50;;;;;;5016609;28;20056;-68
2021/06/03 06:16:19;;;;;;;5.90;3.05;;;21.70;94.00;;;;;;5016374;28;20060;-68
2021/06/03 06:19:23;;;;;;;6.38;2.70;;;22.20;94.20;;;;;;5018272;28;20220;-67
2021/06/03 06:22:27;;;;;;;5.28;2.78;;;23.30;93.10;;;;;;5010852;28;20053;-68
2021/06/03 06:25:32;;;;;;;4.38;3.03;;;25.10;91.50;;;;;;5016584;28;20424;-68
2021/06/03 06:28:36;;;;;;;8.10;3.20;;;25.90;90.30;;;;;;5013433;28;20040;-68
2021/06/03 06:31:40;;;;;;;5.18;2.80;;;26.50;88.40;;;;;;5023007;28;20056;-68
2021/06/03 06:34:44;;;;;;;4.88;2.90;;;26.80;87.00;;;;;;5027570;28;20052;-67
2021/06/03 06:37:48;;;;;;;6.43;3.17;;;26.40;87.00;;;;;;5030593;28;20069;-68
2021/06/03 06:40:54;;;;;;;4.13;2.78;;;26.90;87.10;;;;;;5031139;28;20035;-68
2021/06/03 06:43:58;;;;;;;6.43;2.35;;;27.70;86.10;;;;;;5029566;28;20036;-68
2021/06/03 06:47:02;;;;;;;4.10;2.45;;;26.60;85.90;;;;;;5042018;28;20048;-68
2021/06/03 06:50:08;;;;;;;3.50;2.17;;;27.00;86.20;;;;;;5025608;28;20404;-67
2021/06/03 06:53:13;;;;;;;4.70;2.45;;;27.40;85.20;;;;;;5030735;28;20044;-68
2021/06/03 06:56:17;;;;;;;5.60;2.30;;;26.40;84.70;;;;;;5030676;28;20048;-67
2021/06/03 06:59:21;;;;;;;5.20;2.28;;;25.30;87.10;;;;;;5024487;28;20052;-68
2021/06/03 07:02:25;;;;;;;5.35;2.08;;;25.90;88.40;;;;;;5030150;28;20393;-67
2021/06/03 07:05:29;;;;;;;3.58;2.30;;;26.30;87.30;;;;;;5017310;28;20060;-68
2021/06/03 07:08:33;;;;;;;2.85;2.05;;;26.40;87.20;;;;;;5028042;28;20056;-68
2021/06/03 07:11:37;;;;;;;3.10;2.10;;;26.70;87.90;;;;;;5010513;28;20056;-68
2021/06/03 07:14:42;;;;;;;4.05;2.10;;;26.00;88.40;;;;;;5020673;28;20064;-68
2021/06/03 07:17:47;;;;;;;3.10;2.10;;;26.90;86.70;;;;;;5018629;28;20037;-67
2021/06/03 07:20:51;;;;;;;4.03;2.30;;;27.30;85.90;;;;;;5029084;28;20385;-68
2021/06/03 07:23:55;;;;;;;7.18;2.08;;;29.00;83.10;;;;;;5030131;28;20057;-68
2021/06/03 07:26:59;;;;;;;4.45;2.63;;;28.20;82.50;;;;;;5023481;28;20762;-67
2021/06/03 07:30:06;;;;;;;5.88;2.38;;;25.70;82.20;;;;;;5029449;28;20041;-68
2021/06/03 07:33:11;;;;;;;5.45;2.35;;;25.90;83.90;;;;;;5018276;28;20052;-67
2021/06/03 07:36:15;;;;;;;2.72;2.10;;;26.90;83.90;;;;;;5029602;28;20048;-68
2021/06/03 07:39:21;;;;;;;4.50;2.10;;;28.40;82.00;;;;;;5032057;28;20682;-68
2021/06/03 07:42:25;;;;;;;6.97;2.60;;;28.90;77.70;;;;;;5049653;28;20048;-67
2021/06/03 07:45:31;;;;;;;3.75;2.00;;;27.50;78.10;;;;;;5039522;28;20384;-68
2021/06/03 07:48:35;;;;;;;3.72;2.15;;;29.60;76.90;;;;;;5033684;28;20060;-68
2021/06/03 07:51:43;;;;;;;5.95;2.58;;;29.60;76.10;;;;;;5021261;28;20048;-68
2021/06/03 07:54:47;;;;;;;6.07;2.20;;;30.30;76.10;;;;;;5033951;28;20053;-68
2021/06/03 07:57:55;;;;;;;3.58;2.00;;;31.10;74.30;;;;;;5034188;28;20052;-68
2021/06/03 08:01:00;;;;;;;4.95;2.03;;;30.40;77.10;;;;;;5020954;28;20503;-67
2021/06/03 08:04:04;;;;;;;6.35;2.30;;;32.50;74.30;;;;;;5033414;28;20048;-67
2021/06/03 08:07:08;;;;;;;7.00;2.40;;;32.90;72.10;;;;;;5033180;28;20044;-68
2021/06/03 08:10:16;;;;;;;5.40;2.10;;;33.60;70.40;;;;;;5033123;28;20041;-68
2021/06/03 08:13:21;;;;;;;6.90;2.30;;;34.50;68.30;;;;;;5024764;28;20045;-68
2021/06/03 08:16:25;;;;;;;3.20;1.80;;;35.10;67.20;;;;;;5026075;28;20045;-68
2021/06/03 08:19:31;;;;;;;5.25;1.80;;;35.20;65.30;;;;;;5020699;28;20044;-67
2021/06/03 08:22:36;;;;;;;2.40;1.60;;;34.00;66.50;;;;;;5021082;28;20049;-67
2021/06/03 08:25:40;;;;;;;4.80;1.90;;;31.70;67.50;;;;;;5014251;28;20053;-67
2021/06/03 08:28:44;;;;;;;6.75;2.05;;;33.00;67.50;;;;;;5027187;28;20486;-68
2021/06/03 08:31:50;;;;;;;3.92;1.58;;;35.10;64.80;;;;;;5053484;28;20048;-68
2021/06/03 08:34:55;;;;;;;4.45;1.90;;;35.30;64.10;;;;;;5032761;28;20041;-67
2021/06/03 08:38:03;;;;;;;3.92;1.55;;;33.50;66.70;;;;;;5013670;28;20389;-68
2021/06/03 08:41:08;;;;;;;3.20;2.05;;;35.00;66.00;;;;;;5041765;28;20055;-68
2021/06/03 08:44:13;;;;;;;3.47;2.08;;;36.90;65.10;;;;;;5052792;28;20055;-67
2021/06/03 08:47:17;;;;;;;4.10;1.77;;;36.60;64.70;;;;;;5014025;28;20404;-68
2021/06/03 08:50:28;;;;;;;2.42;1.50;;;37.50;63.00;;;;;;5011775;28;20053;-68
2021/06/03 08:53:33;;;;;;;3.28;1.65;;;38.80;61.50;;;;;;5013230;28;20048;-67
2021/06/03 08:56:38;;;;;;;3.28;1.42;;;37.90;59.80;;;;;;5020071;28;20052;-68
2021/06/03 08:59:42;;;;;;;4.53;1.92;;;36.60;61.10;;;;;;5032201;28;20720;-68
2021/06/03 09:02:46;;;;;;;4.15;1.50;;;34.50;61.90;;;;;;5013310;28;20037;-67
2021/06/03 09:05:50;;;;;;;4.63;1.60;;;34.20;62.50;;;;;;5012368;28;20052;-67
2021/06/03 09:08:58;;;;;;;2.90;1.50;;;36.10;61.80;;;;;;5013535;28;20048;-68
2021/06/03 09:12:13;;;;;;;10.50;2.30;;;37.20;60.00;;;;;;5027654;28;20045;-68
2021/06/03 09:15:18;;;;;;;11.98;2.42;;;39.10;59.10;;;;;;5019254;28;20052;-67
2021/06/03 09:18:39;;;;;;;2.90;1.40;;;40.10;58.40;;;;;;5029587;28;20052;-68
2021/06/03 09:21:46;;;;;;;2.15;1.20;;;41.80;56.60;;;;;;5011858;28;20590;-68
2021/06/03 09:24:50;;;;;;;4.65;1.58;;;40.60;55.40;;;;;;5012160;28;20029;-68
2021/06/03 09:27:54;;;;;;;2.78;1.40;;;39.50;55.50;;;;;;5012500;28;20041;-68
2021/06/03 09:31:18;;;;;;;5.25;1.50;;;39.80;54.40;;;;;;5012243;28;20052;-69
2021/06/03 09:34:22;;;;;;;8.07;1.60;;;33.80;59.70;;;;;;5012040;28;20053;-68
2021/06/03 09:37:34;;;;;;;3.17;1.40;;;34.10;59.80;;;;;;5012649;28;20052;-68
2021/06/03 09:40:48;;;;;;;3.22;1.65;;;35.40;58.80;;;;;;5012530;28;20073;-68
2021/06/03 09:44:09;;;;;;;2.40;1.20;;;33.90;58.00;;;;;;5011276;28;20049;-67
2021/06/03 09:47:21;;;;;;;3.67;1.33;;;36.90;55.60;;;;;;5012790;28;20371;-67
2021/06/03 09:50:25;;;;;;;2.97;1.45;;;38.90;55.20;;;;;;5011181;28;20040;-67
2021/06/03 09:53:56;;;;;;;2.25;1.40;;;34.90;59.30;;;;;;5023118;28;20060;-67
2021/06/03 09:57:11;;;;;;;3.85;1.20;;;35.00;56.70;;;;;;5023827;28;20619;-67
2021/06/03 10:00:20;;;;;;;2.03;1.27;;;38.60;53.80;;;;;;5011708;28;20045;-68
2021/06/03 10:03:25;;;;;;;2.83;1.40;;;36.50;54.40;;;;;;5012018;28;20045;-69
2021/06/03 10:06:29;;;;;;;1.33;1.00;;;38.50;54.40;;;;;;5012004;28;20057;-67
2021/06/03 10:09:56;;;;;;;1.77;0.95;;;38.70;53.90;;;;;;5010905;28;20041;-68
2021/06/03 10:13:06;;;;;;;5.25;1.00;;;38.70;49.50;;;;;;4999860;28;20052;-68
2021/06/03 10:16:30;;;;;;;1.52;1.08;;;39.60;48.80;;;;;;5011460;28;20096;-68
2021/06/03 10:19:34;;;;;;;4.07;1.30;;;38.00;46.00;;;;;;5015677;28;20045;-68
2021/06/03 10:22:44;;;;;;;2.10;1.10;;;38.20;48.40;;;;;;5031746;28;20045;-68
2021/06/03 10:25:49;;;;;;;;;;;38.40;48.00;;;;;;5011553;28;20065;-68
2021/06/03 10:28:53;;;;;;;2.38;1.20;;;38.50;48.80;;;;;;5011696;28;19913;-67
2021/06/03 10:31:57;;;;;;;1.73;0.90;;;38.10;48.10;;;;;;5010978;28;20069;-68
2021/06/03 10:35:06;;;;;;;0.80;0.80;;;39.90;48.60;;;;;;5009964;28;20492;-67
2021/06/03 10:38:11;;;;;;;2.17;1.27;;;41.20;48.00;;;;;;5011689;28;20049;-68
2021/06/03 10:41:17;;;;;;;10.57;1.35;;;41.80;47.90;;;;;;5010582;28;20048;-67
2021/06/03 10:44:22;;;;;;;2.65;1.20;;;42.20;49.00;;;;;;5011389;28;20068;-68
2021/06/03 10:47:26;;;;;;;3.35;0.93;;;39.80;48.10;;;;;;5011553;28;20551;-68
2021/06/03 10:50:51;;;;;;;6.78;1.10;;;41.50;48.50;;;;;;5010417;28;20052;-68
2021/06/03 10:53:57;;;;;;;2.85;1.40;;;41.60;48.70;;;;;;5011285;28;20045;-67
2021/06/03 10:57:03;;;;;;;1.63;0.95;;;38.30;49.50;;;;;;5011128;28;20041;-67
2021/06/03 11:00:29;;;;;;;2.25;1.10;;;37.70;49.30;;;;;;5010654;28;20504;-68
2021/06/03 11:03:47;;;;;;;5.50;1.55;;;38.50;49.20;;;;;;5010599;28;20040;-68
2021/06/03 11:06:51;;;;;;;2.00;1.08;;;39.00;49.20;;;;;;5010783;28;20041;-68
2021/06/03 11:09:57;;;;;;;2.60;1.17;;;39.70;50.00;;;;;;5010974;28;20045;-69
2021/06/03 11:13:14;;;;;;;6.68;1.45;;;39.30;48.40;;;;;;4999493;28;20369;-69
2021/06/03 11:16:19;;;;;;;1.75;1.17;;;39.40;50.40;;;;;;5010323;28;20057;-68
2021/06/03 11:19:29;;;;;;;4.45;1.40;;;35.30;51.60;;;;;;5013999;28;20040;-68
2021/06/03 11:22:34;;;;;;;2.95;1.20;;;35.20;53.60;;;;;;5026878;28;20056;-68
2021/06/03 11:25:38;;;;;;;3.75;1.20;;;34.70;51.50;;;;;;5017189;28;20054;-69
2021/06/03 11:29:21;;;;;;;3.63;1.20;;;36.70;51.20;;;;;;5029141;28;20048;-68
2021/06/03 11:32:32;;;;;;;3.22;1.10;;;37.40;50.00;;;;;;5029634;28;20056;-68
2021/06/03 11:35:36;;;;;;;3.70;1.40;;;34.50;53.30;;;;;;5028122;28;20511;-69
2021/06/03 11:38:42;;;;;;;9.43;1.33;;;32.70;53.50;;;;;;5030027;28;20110;-69
2021/06/03 11:41:46;;;;;;;5.25;1.90;;;32.40;55.80;;;;;;5029165;28;20064;-69
2021/06/03 11:45:12;;;;;;;2.25;1.58;;;33.90;54.00;;;;;;5034839;28;20052;-68
2021/06/03 11:48:19;;;;;;;2.55;1.40;;;33.60;53.40;;;;;;5017171;28;20048;-69
2021/06/03 11:51:24;;;;;;;3.33;1.48;;;33.90;53.00;;;;;;5020757;28;20044;-68
2021/06/03 11:55:01;;;;;;;5.07;1.50;;;32.20;55.90;;;;;;5017092;28;20040;-67
2021/06/03 11:58:24;;;;;;;5.32;1.63;;;33.40;54.80;;;;;;5011935;28;20395;-68
2021/06/03 12:01:33;;;;;;;3.40;1.50;;;34.00;54.00;;;;;;5010988;28;20061;-68
2021/06/03 12:04:37;;;;;;;6.57;1.77;;;34.30;53.90;;;;;;5008673;28;20060;-68
2021/06/03 12:07:54;;;;;;;3.47;1.70;;;34.30;52.30;;;;;;5012149;28;20049;-68
2021/06/03 12:10:59;;;;;;;7.88;1.60;;;33.30;53.90;;;;;;5011768;28;20052;-68
2021/06/03 12:14:19;;;;;;;3.45;1.65;;;33.00;55.00;;;;;;5009468;28;20053;-68
2021/06/03 12:17:23;;;;;;;2.95;1.67;;;32.40;54.30;;;;;;5008826;28;20053;-68
2021/06/03 12:20:28;;;;;;;3.13;1.80;;;30.90;57.30;;;;;;5017512;28;20040;-68
2021/06/03 12:23:34;;;;;;;3.05;1.80;;;31.80;55.80;;;;;;5008551;28;20053;-68
2021/06/03 12:26:40;;;;;;;2.55;1.42;;;31.10;54.50;;;;;;4997190;28;20044;-68
2021/06/03 12:29:45;;;;;;;4.13;2.10;;;31.90;55.70;;;;;;5020072;28;20048;-68
2021/06/03 12:33:07;;;;;;;4.53;1.70;;;31.20;55.80;;;;;;5024281;28;20246;-67
2021/06/03 12:36:12;;;;;;;3.80;1.60;;;31.10;56.30;;;;;;5012523;28;20048;-67
2021/06/03 12:39:17;;;;;;;3.25;1.58;;;30.50;55.00;;;;;;5028578;28;20068;-68
2021/06/03 12:42:24;;;;;;;3.13;1.80;;;32.10;55.00;;;;;;5012824;28;20052;-68
2021/06/03 12:45:40;;;;;;;6.80;2.00;;;33.30;54.30;;;;;;5016637;28;20061;-68
2021/06/03 12:48:44;;;;;;;6.75;2.17;;;34.30;53.00;;;;;;5049652;28;20048;-68
2021/06/03 12:51:53;;;;;;;3.22;1.90;;;33.50;52.30;;;;;;5025516;28;20392;-68
2021/06/03 12:54:59;;;;;;;3.05;1.65;;;32.40;52.20;;;;;;5048301;28;20045;-68
2021/06/03 12:58:07;;;;;;;4.85;1.70;;;32.00;53.90;;;;;;5012377;28;20418;-68
2021/06/03 13:01:14;;;;;;;3.97;1.63;;;32.50;53.30;;;;;;5029929;28;20117;-68
2021/06/03 13:04:20;;;;;;;4.63;1.70;;;31.90;52.90;;;;;;5032465;28;20048;-68
2021/06/03 13:07:37;;;;;;;2.58;1.90;;;31.90;56.30;;;;;;5031309;28;20056;-68
2021/06/03 13:10:42;;;;;;;2.85;1.48;;;30.80;55.10;;;;;;5030981;28;20048;-68
2021/06/03 13:13:46;;;;;;;2.85;1.83;;;30.30;57.70;;;;;;5025289;28;20117;-68
2021/06/03 13:17:01;;;;;;;8.18;2.00;;;29.00;59.80;;;;;;5011489;28;20052;-67
2021/06/03 13:20:17;;;;;;;5.30;1.67;;;29.70;58.00;;;;;;5013574;28;20076;-68
2021/06/03 13:23:23;;;;;;;4.20;1.80;;;30.30;58.60;;;;;;5013970;28;20085;-68
2021/06/03 13:26:27;;;;;;;5.75;1.80;;;30.10;58.30;;;;;;5014553;28;20502;-67
2021/06/03 13:29:36;;;;;;;4.47;1.80;;;29.30;58.00;;;;;;5011301;28;20056;-68
2021/06/03 13:32:41;;;;;;;33.88;3.05;;;30.10;59.70;;;;;;5029000;28;20036;-68
2021/06/03 13:35:51;;;;;;;2.97;1.77;;;30.40;59.70;;;;;;5016643;28;20052;-67
2021/06/03 13:38:57;;;;;;;6.50;2.08;;;29.40;57.20;;;;;;5023609;28;20041;-67
2021/06/03 13:42:08;;;;;;;2.85;1.67;;;29.10;58.40;;;;;;5023831;28;20546;-68
2021/06/03 13:45:21;;;;;;;2.55;1.80;;;28.50;59.40;;;;;;5015720;28;20044;-67
2021/06/03 13:48:29;;;;;;;6.55;1.90;;;29.20;59.40;;;;;;5006301;28;20058;-68
2021/06/03 13:51:35;;;;;;;1.63;1.40;;;29.30;58.80;;;;;;5012847;28;20049;-67
2021/06/03 13:54:41;;;;;;;3.50;1.55;;;28.80;58.90;;;;;;5012183;28;20049;-68
2021/06/03 13:57:47;;;;;;;3.83;1.55;;;29.30;57.90;;;;;;5016783;28;20076;-68
2021/06/03 14:00:51;;;;;;;5.22;1.63;;;29.00;59.10;;;;;;5012727;28;20049;-68
2021/06/03 14:04:06;;;;;;;3.38;1.65;;;29.40;57.10;;;;;;5009037;28;20049;-68
2021/06/03 14:07:11;;;;;;;6.40;1.90;;;29.20;56.80;;;;;;5019747;28;20077;-68
2021/06/03 14:10:17;;;;;;;2.85;1.60;;;29.40;56.60;;;;;;5009971;28;20052;-67
2021/06/03 14:13:22;;;;;;;4.15;1.70;;;29.30;58.30;;;;;;5008270;28;20417;-68
2021/06/03 14:17:00;;;;;;;5.53;2.00;;;29.40;57.00;;;;;;5010483;28;20052;-68
2021/06/03 14:20:15;;;;;;;2.28;1.58;;;29.00;56.80;;;;;;5016099;28;20047;-67
2021/06/03 14:23:19;;;;;;;4.15;1.45;;;29.60;58.40;;;;;;5010427;28;20508;-68
2021/06/03 14:26:24;;;;;;;2.30;1.67;;;29.70;58.50;;;;;;5012134;28;20041;-67
2021/06/03 14:29:40;;;;;;;3.47;1.45;;;28.90;57.20;;;;;;5011890;28;20037;-68
2021/06/03 14:32:53;;;;;;;4.05;1.73;;;29.40;57.00;;;;;;5010628;28;20052;-69
2021/06/03 14:35:59;;;;;;;2.88;1.92;;;29.40;57.80;;;;;;5029065;28;20582;-68
2021/06/03 14:39:04;;;;;;;5.38;1.95;;;28.70;57.70;;;;;;5024410;28;20048;-68
2021/06/03 14:42:20;;;;;;;4.97;1.83;;;28.00;57.90;;;;;;5028693;28;20044;-68
2021/06/03 14:45:28;;;;;;;3.33;2.08;;;28.10;57.20;;;;;;5036533;28;20184;-68
2021/06/03 14:48:36;;;;;;;4.10;1.70;;;28.00;61.10;;;;;;5023222;28;20052;-68
2021/06/03 14:51:42;;;;;;;3.13;1.90;;;28.70;59.60;;;;;;5036572;28;20040;-69
2021/06/03 14:54:46;;;;;;;4.00;1.80;;;28.90;57.50;;;;;;5031526;28;20041;-68
2021/06/03 14:57:51;;;;;;;5.13;1.70;;;28.10;57.60;;;;;;5011041;28;20040;-68
2021/06/03 15:01:02;;;;;;;5.43;1.50;;;27.80;58.30;;;;;;5021681;28;20036;-67
2021/06/03 15:04:07;;;;;;;4.20;1.55;;;28.10;56.20;;;;;;5010982;28;20052;-68
2021/06/03 15:07:15;;;;;;;4.07;1.92;;;28.40;57.90;;;;;;5034340;28;20048;-68
2021/06/03 15:10:21;;;;;;;3.45;2.00;;;28.50;60.20;;;;;;5050279;28;20060;-68
2021/06/03 15:13:32;;;;;;;4.97;2.03;;;28.10;58.60;;;;;;5035287;28;20048;-68
2021/06/03 15:16:39;;;;;;;4.03;1.65;;;28.00;57.80;;;;;;5030360;28;20065;-69
2021/06/03 15:19:45;;;;;;;2.00;1.60;;;28.50;59.60;;;;;;5029478;28;20066;-68
2021/06/03 15:22:50;;;;;;;3.13;1.70;;;28.40;57.60;;;;;;5040157;28;20128;-67
2021/06/03 15:25:55;;;;;;;4.93;1.88;;;28.50;58.20;;;;;;5034920;28;20036;-68
2021/06/03 15:29:01;;;;;;;3.33;1.63;;;28.30;56.30;;;;;;5030317;28;20049;-68
2021/06/03 15:32:07;;;;;;;9.85;1.75;;;28.30;57.20;;;;;;5028354;28;20056;-68
2021/06/03 15:35:14;;;;;;;5.15;1.88;;;28.30;58.60;;;;;;5024507;28;20522;-68
2021/06/03 15:38:20;;;;;;;5.18;1.73;;;28.20;55.70;;;;;;5009380;28;20041;-67
2021/06/03 15:41:24;;;;;;;4.47;1.65;;;28.50;57.40;;;;;;5036532;28;20049;-69
2021/06/03 15:44:29;;;;;;;3.30;1.38;;;28.50;58.50;;;;;;5045786;28;20044;-68
2021/06/03 15:47:38;;;;;;;2.90;1.60;;;28.60;55.90;;;;;;5049049;28;20502;-68
2021/06/03 15:50:42;;;;;;;3.65;1.30;;;28.80;57.40;;;;;;5029480;28;20424;-69
2021/06/03 15:53:48;;;;;;;3.78;1.40;;;28.50;58.10;;;;;;5027236;28;20048;-69
2021/06/03 15:56:53;;;;;;;2.85;1.63;;;28.30;57.90;;;;;;5010228;28;20053;-69
2021/06/03 15:59:57;;;;;;;5.13;1.50;;;28.40;59.20;;;;;;5012087;28;20048;-69
2021/06/03 16:03:02;;;;;;;2.67;1.40;;;28.40;57.80;;;;;;5031366;28;20040;-68
2021/06/03 16:06:06;;;;;;;9.48;1.50;;;28.10;57.00;;;;;;5044464;28;20044;-68
2021/06/03 16:09:10;;;;;;;1.77;1.30;;;28.40;57.00;;;;;;5041879;28;20049;-68
2021/06/03 16:12:15;;;;;;;5.10;1.55;;;28.60;55.60;;;;;;5053601;28;20064;-68
2021/06/03 16:15:20;;;;;;;6.93;1.60;;;28.50;58.20;;;;;;5050970;28;20487;-68